sensor_id;sensor_type;location;lat;lon;timestamp;P1;durP1;ratioP1;P2;durP2;ratioP2
84161;SDS011;74285;52.372;12.924;2024-02-16T00:02:10;5.97;;;3.70;;
84161;SDS011;74285;52.372;12.924;2024-02-16T00:04:36;6.60;;;3.67;;
84161;SDS011;74285;52.372;12.924;2024-02-16T00:07:01;6.23;;;4.00;;
84161;SDS011;74285;52.372;12.924;2024-02-16T00:09:26;4.80;;;3.47;;
84161;SDS011;74285;52.372;12.924;2024-02-16T00:11:52;10.35;;;4.03;;
84161;SDS011;74285;52.372;12.924;2024-02-16T00:14:17;5.87;;;3.37;;
84161;SDS011;74285;52.372;12.924;2024-02-16T00:16:43;6.78;;;3.83;;
84161;SDS011;74285;52.372;12.924;2024-02-16T00:19:08;5.80;;;3.33;;
84161;SDS011;74285;52.372;12.924;2024-02-16T00:21:33;5.67;;;3.30;;
84161;SDS011;74285;52.372;12.924;2024-02-16T00:23:58;4.43;;;2.90;;
84161;SDS011;74285;52.372;12.924;2024-02-16T00:26:24;4.00;;;2.90;;
84161;SDS011;74285;52.372;12.924;2024-02-16T00:28:49;5.93;;;3.08;;
84161;SDS011;74285;52.372;12.924;2024-02-16T00:31:14;6.50;;;3.63;;
84161;SDS011;74285;52.372;12.924;2024-02-16T00:33:40;6.53;;;3.33;;
84161;SDS011;74285;52.372;12.924;2024-02-16T00:38:31;7.03;;;3.80;;
84161;SDS011;74285;52.372;12.924;2024-02-16T00:40:56;5.20;;;3.13;;
84161;SDS011;74285;52.372;12.924;2024-02-16T00:43:22;7.13;;;3.90;;
84161;SDS011;74285;52.372;12.924;2024-02-16T00:45:47;6.33;;;3.20;;
84161;SDS011;74285;52.372;12.924;2024-02-16T00:48:13;7.07;;;3.55;;
84161;SDS011;74285;52.372;12.924;2024-02-16T00:50:39;6.88;;;4.10;;
84161;SDS011;74285;52.372;12.924;2024-02-16T00:53:04;8.93;;;5.10;;
84161;SDS011;74285;52.372;12.924;2024-02-16T00:55:29;10.60;;;4.33;;
84161;SDS011;74285;52.372;12.924;2024-02-16T00:57:55;8.13;;;4.63;;
84161;SDS011;74285;52.372;12.924;2024-02-16T01:00:20;9.20;;;4.72;;
84161;SDS011;74285;52.372;12.924;2024-02-16T01:02:48;8.57;;;4.53;;
84161;SDS011;74285;52.372;12.924;2024-02-16T01:05:13;7.03;;;4.17;;
84161;SDS011;74285;52.372;12.924;2024-02-16T01:07:42;8.10;;;4.32;;
84161;SDS011;74285;52.372;12.924;2024-02-16T01:10:07;9.17;;;4.93;;
84161;SDS011;74285;52.372;12.924;2024-02-16T01:12:33;8.77;;;4.80;;
84161;SDS011;74285;52.372;12.924;2024-02-16T01:14:58;9.27;;;5.00;;
84161;SDS011;74285;52.372;12.924;2024-02-16T01:17:24;12.20;;;5.93;;
84161;SDS011;74285;52.372;12.924;2024-02-16T01:19:50;10.40;;;6.00;;
84161;SDS011;74285;52.372;12.924;2024-02-16T01:22:15;13.20;;;5.70;;
84161;SDS011;74285;52.372;12.924;2024-02-16T01:24:41;13.23;;;7.17;;
84161;SDS011;74285;52.372;12.924;2024-02-16T01:27:06;11.73;;;5.97;;
84161;SDS011;74285;52.372;12.924;2024-02-16T01:29:31;11.27;;;6.03;;
84161;SDS011;74285;52.372;12.924;2024-02-16T01:31:57;13.88;;;6.40;;
84161;SDS011;74285;52.372;12.924;2024-02-16T01:34:23;12.57;;;6.60;;
84161;SDS011;74285;52.372;12.924;2024-02-16T01:36:48;11.33;;;6.13;;
84161;SDS011;74285;52.372;12.924;2024-02-16T01:39:13;10.70;;;6.43;;
84161;SDS011;74285;52.372;12.924;2024-02-16T01:41:39;11.33;;;6.43;;
84161;SDS011;74285;52.372;12.924;2024-02-16T01:44:04;13.63;;;6.68;;
84161;SDS011;74285;52.372;12.924;2024-02-16T01:46:30;10.20;;;6.15;;
84161;SDS011;74285;52.372;12.924;2024-02-16T01:48:55;10.55;;;6.05;;
84161;SDS011;74285;52.372;12.924;2024-02-16T01:51:22;10.38;;;6.05;;
84161;SDS011;74285;52.372;12.924;2024-02-16T01:53:48;13.43;;;5.85;;
84161;SDS011;74285;52.372;12.924;2024-02-16T01:56:13;10.97;;;6.20;;
84161;SDS011;74285;52.372;12.924;2024-02-16T01:58:39;11.60;;;5.43;;
84161;SDS011;74285;52.372;12.924;2024-02-16T02:01:04;12.13;;;6.07;;
84161;SDS011;74285;52.372;12.924;2024-02-16T02:03:30;9.43;;;5.87;;
84161;SDS011;74285;52.372;12.924;2024-02-16T02:05:55;12.50;;;6.00;;
84161;SDS011;74285;52.372;12.924;2024-02-16T02:08:21;12.85;;;6.28;;
84161;SDS011;74285;52.372;12.924;2024-02-16T02:10:46;12.45;;;6.40;;
84161;SDS011;74285;52.372;12.924;2024-02-16T02:13:12;12.30;;;6.47;;
84161;SDS011;74285;52.372;12.924;2024-02-16T02:15:37;11.33;;;6.30;;
84161;SDS011;74285;52.372;12.924;2024-02-16T02:18:02;14.17;;;6.80;;
84161;SDS011;74285;52.372;12.924;2024-02-16T02:20:29;11.40;;;6.40;;
84161;SDS011;74285;52.372;12.924;2024-02-16T02:22:54;12.77;;;6.90;;
84161;SDS011;74285;52.372;12.924;2024-02-16T02:25:20;13.00;;;6.75;;
84161;SDS011;74285;52.372;12.924;2024-02-16T02:27:45;12.47;;;6.60;;
84161;SDS011;74285;52.372;12.924;2024-02-16T02:30:10;14.30;;;7.25;;
84161;SDS011;74285;52.372;12.924;2024-02-16T02:32:36;14.60;;;6.88;;
84161;SDS011;74285;52.372;12.924;2024-02-16T02:35:01;12.60;;;7.63;;
84161;SDS011;74285;52.372;12.924;2024-02-16T02:37:27;13.07;;;6.72;;
84161;SDS011;74285;52.372;12.924;2024-02-16T02:39:52;15.73;;;7.38;;
84161;SDS011;74285;52.372;12.924;2024-02-16T02:42:17;11.97;;;6.07;;
84161;SDS011;74285;52.372;12.924;2024-02-16T02:44:43;13.20;;;6.67;;
84161;SDS011;74285;52.372;12.924;2024-02-16T02:47:14;13.52;;;6.78;;
84161;SDS011;74285;52.372;12.924;2024-02-16T02:49:40;12.63;;;7.00;;
84161;SDS011;74285;52.372;12.924;2024-02-16T02:52:05;12.83;;;6.87;;
84161;SDS011;74285;52.372;12.924;2024-02-16T02:54:31;13.45;;;7.00;;
84161;SDS011;74285;52.372;12.924;2024-02-16T02:56:56;14.77;;;7.20;;
84161;SDS011;74285;52.372;12.924;2024-02-16T02:59:22;12.05;;;6.97;;
84161;SDS011;74285;52.372;12.924;2024-02-16T03:01:47;11.10;;;6.73;;
84161;SDS011;74285;52.372;12.924;2024-02-16T03:04:13;13.80;;;7.07;;
84161;SDS011;74285;52.372;12.924;2024-02-16T03:06:38;12.40;;;6.90;;
84161;SDS011;74285;52.372;12.924;2024-02-16T03:09:03;15.07;;;7.03;;
84161;SDS011;74285;52.372;12.924;2024-02-16T03:11:30;13.15;;;6.93;;
84161;SDS011;74285;52.372;12.924;2024-02-16T03:13:56;13.02;;;6.95;;
84161;SDS011;74285;52.372;12.924;2024-02-16T03:16:21;15.52;;;7.50;;
84161;SDS011;74285;52.372;12.924;2024-02-16T03:18:47;15.27;;;7.70;;
84161;SDS011;74285;52.372;12.924;2024-02-16T03:21:13;12.70;;;6.97;;
84161;SDS011;74285;52.372;12.924;2024-02-16T03:23:41;15.40;;;6.40;;
84161;SDS011;74285;52.372;12.924;2024-02-16T03:26:13;15.87;;;6.77;;
84161;SDS011;74285;52.372;12.924;2024-02-16T03:28:39;13.65;;;6.97;;
84161;SDS011;74285;52.372;12.924;2024-02-16T03:31:04;13.90;;;7.38;;
84161;SDS011;74285;52.372;12.924;2024-02-16T03:33:29;13.18;;;6.75;;
84161;SDS011;74285;52.372;12.924;2024-02-16T03:35:55;13.23;;;7.23;;
84161;SDS011;74285;52.372;12.924;2024-02-16T03:38:20;13.63;;;7.47;;
84161;SDS011;74285;52.372;12.924;2024-02-16T03:40:46;17.00;;;8.45;;
84161;SDS011;74285;52.372;12.924;2024-02-16T03:43:11;14.07;;;7.53;;
84161;SDS011;74285;52.372;12.924;2024-02-16T03:45:36;15.95;;;8.00;;
84161;SDS011;74285;52.372;12.924;2024-02-16T03:48:02;14.15;;;7.25;;
84161;SDS011;74285;52.372;12.924;2024-02-16T03:50:27;12.80;;;7.65;;
84161;SDS011;74285;52.372;12.924;2024-02-16T03:52:52;16.80;;;8.67;;
84161;SDS011;74285;52.372;12.924;2024-02-16T03:55:18;16.80;;;7.93;;
84161;SDS011;74285;52.372;12.924;2024-02-16T03:57:43;13.52;;;6.93;;
84161;SDS011;74285;52.372;12.924;2024-02-16T04:02:37;14.63;;;7.68;;
84161;SDS011;74285;52.372;12.924;2024-02-16T04:05:02;13.67;;;7.03;;
84161;SDS011;74285;52.372;12.924;2024-02-16T04:07:28;13.43;;;7.50;;
84161;SDS011;74285;52.372;12.924;2024-02-16T04:09:53;12.37;;;6.70;;
84161;SDS011;74285;52.372;12.924;2024-02-16T04:12:19;15.63;;;7.80;;
84161;SDS011;74285;52.372;12.924;2024-02-16T04:14:44;17.23;;;7.90;;
84161;SDS011;74285;52.372;12.924;2024-02-16T04:17:09;14.77;;;7.97;;
84161;SDS011;74285;52.372;12.924;2024-02-16T04:19:36;16.17;;;7.93;;
84161;SDS011;74285;52.372;12.924;2024-02-16T04:22:01;14.23;;;7.22;;
84161;SDS011;74285;52.372;12.924;2024-02-16T04:24:28;16.92;;;8.25;;
84161;SDS011;74285;52.372;12.924;2024-02-16T04:26:53;13.67;;;7.80;;
84161;SDS011;74285;52.372;12.924;2024-02-16T04:29:19;14.53;;;7.30;;
84161;SDS011;74285;52.372;12.924;2024-02-16T04:31:44;14.47;;;6.97;;
84161;SDS011;74285;52.372;12.924;2024-02-16T04:34:11;14.70;;;7.65;;
84161;SDS011;74285;52.372;12.924;2024-02-16T04:36:37;12.93;;;7.30;;
84161;SDS011;74285;52.372;12.924;2024-02-16T04:39:02;12.03;;;6.93;;
84161;SDS011;74285;52.372;12.924;2024-02-16T04:41:27;12.30;;;7.15;;
84161;SDS011;74285;52.372;12.924;2024-02-16T04:43:53;13.43;;;7.53;;
84161;SDS011;74285;52.372;12.924;2024-02-16T04:46:18;13.30;;;6.93;;
84161;SDS011;74285;52.372;12.924;2024-02-16T04:48:43;17.70;;;7.80;;
84161;SDS011;74285;52.372;12.924;2024-02-16T04:51:10;12.30;;;6.90;;
84161;SDS011;74285;52.372;12.924;2024-02-16T04:53:36;10.98;;;6.60;;
84161;SDS011;74285;52.372;12.924;2024-02-16T04:56:01;11.80;;;6.60;;
84161;SDS011;74285;52.372;12.924;2024-02-16T04:58:27;13.45;;;6.57;;
84161;SDS011;74285;52.372;12.924;2024-02-16T05:00:52;13.30;;;7.30;;
84161;SDS011;74285;52.372;12.924;2024-02-16T05:03:17;12.03;;;6.50;;
84161;SDS011;74285;52.372;12.924;2024-02-16T05:05:43;12.60;;;6.32;;
84161;SDS011;74285;52.372;12.924;2024-02-16T05:08:09;12.15;;;6.25;;
84161;SDS011;74285;52.372;12.924;2024-02-16T05:10:34;11.25;;;6.00;;
84161;SDS011;74285;52.372;12.924;2024-02-16T05:12:59;11.57;;;6.10;;
84161;SDS011;74285;52.372;12.924;2024-02-16T05:15:24;13.27;;;6.63;;
84161;SDS011;74285;52.372;12.924;2024-02-16T05:17:50;13.65;;;6.00;;
84161;SDS011;74285;52.372;12.924;2024-02-16T05:20:16;15.33;;;6.20;;
84161;SDS011;74285;52.372;12.924;2024-02-16T05:22:45;10.68;;;5.38;;
84161;SDS011;74285;52.372;12.924;2024-02-16T05:25:11;11.35;;;5.32;;
84161;SDS011;74285;52.372;12.924;2024-02-16T05:27:36;12.93;;;5.95;;
84161;SDS011;74285;52.372;12.924;2024-02-16T05:30:02;10.68;;;6.00;;
84161;SDS011;74285;52.372;12.924;2024-02-16T05:32:29;12.70;;;6.25;;
84161;SDS011;74285;52.372;12.924;2024-02-16T05:34:54;8.93;;;4.20;;
84161;SDS011;74285;52.372;12.924;2024-02-16T05:37:19;11.17;;;6.30;;
84161;SDS011;74285;52.372;12.924;2024-02-16T05:39:47;10.65;;;5.43;;
84161;SDS011;74285;52.372;12.924;2024-02-16T05:42:33;11.45;;;6.28;;
84161;SDS011;74285;52.372;12.924;2024-02-16T05:44:58;8.75;;;4.88;;
84161;SDS011;74285;52.372;12.924;2024-02-16T05:47:23;10.70;;;5.47;;
84161;SDS011;74285;52.372;12.924;2024-02-16T05:49:49;7.93;;;4.67;;
84161;SDS011;74285;52.372;12.924;2024-02-16T05:52:14;9.13;;;5.07;;
84161;SDS011;74285;52.372;12.924;2024-02-16T05:54:43;11.20;;;5.15;;
84161;SDS011;74285;52.372;12.924;2024-02-16T05:57:13;9.15;;;5.25;;
84161;SDS011;74285;52.372;12.924;2024-02-16T05:59:38;9.40;;;5.15;;
84161;SDS011;74285;52.372;12.924;2024-02-16T06:02:04;11.38;;;5.05;;
84161;SDS011;74285;52.372;12.924;2024-02-16T06:04:30;8.98;;;5.05;;
84161;SDS011;74285;52.372;12.924;2024-02-16T06:06:56;9.93;;;5.20;;
84161;SDS011;74285;52.372;12.924;2024-02-16T06:09:21;12.37;;;5.73;;
84161;SDS011;74285;52.372;12.924;2024-02-16T06:11:46;12.13;;;5.50;;
84161;SDS011;74285;52.372;12.924;2024-02-16T06:14:13;8.35;;;4.65;;
84161;SDS011;74285;52.372;12.924;2024-02-16T06:16:39;12.93;;;5.70;;
84161;SDS011;74285;52.372;12.924;2024-02-16T06:19:07;7.97;;;4.22;;
84161;SDS011;74285;52.372;12.924;2024-02-16T06:21:33;9.23;;;4.72;;
84161;SDS011;74285;52.372;12.924;2024-02-16T06:23:59;10.07;;;4.70;;
84161;SDS011;74285;52.372;12.924;2024-02-16T06:26:24;10.60;;;4.30;;
84161;SDS011;74285;52.372;12.924;2024-02-16T06:28:49;10.30;;;4.93;;
84161;SDS011;74285;52.372;12.924;2024-02-16T06:31:14;8.40;;;5.30;;
84161;SDS011;74285;52.372;12.924;2024-02-16T06:33:40;10.63;;;4.87;;
84161;SDS011;74285;52.372;12.924;2024-02-16T06:36:05;8.93;;;4.83;;
84161;SDS011;74285;52.372;12.924;2024-02-16T06:38:32;11.55;;;4.78;;
84161;SDS011;74285;52.372;12.924;2024-02-16T06:40:57;8.20;;;4.53;;
84161;SDS011;74285;52.372;12.924;2024-02-16T06:43:22;8.00;;;4.90;;
84161;SDS011;74285;52.372;12.924;2024-02-16T06:45:47;11.57;;;4.67;;
84161;SDS011;74285;52.372;12.924;2024-02-16T06:48:13;8.63;;;4.83;;
84161;SDS011;74285;52.372;12.924;2024-02-16T06:50:38;8.43;;;4.63;;
84161;SDS011;74285;52.372;12.924;2024-02-16T06:53:03;9.87;;;4.87;;
84161;SDS011;74285;52.372;12.924;2024-02-16T06:55:29;10.20;;;4.60;;
84161;SDS011;74285;52.372;12.924;2024-02-16T06:57:54;8.73;;;5.10;;
84161;SDS011;74285;52.372;12.924;2024-02-16T07:00:19;7.90;;;5.23;;
84161;SDS011;74285;52.372;12.924;2024-02-16T07:02:45;7.68;;;4.30;;
84161;SDS011;74285;52.372;12.924;2024-02-16T07:05:10;9.65;;;4.35;;
84161;SDS011;74285;52.372;12.924;2024-02-16T07:07:36;7.90;;;4.47;;
84161;SDS011;74285;52.372;12.924;2024-02-16T07:10:02;8.57;;;4.50;;
84161;SDS011;74285;52.372;12.924;2024-02-16T07:12:27;11.32;;;4.50;;
84161;SDS011;74285;52.372;12.924;2024-02-16T07:14:52;9.55;;;4.45;;
84161;SDS011;74285;52.372;12.924;2024-02-16T07:17:19;9.32;;;5.13;;
84161;SDS011;74285;52.372;12.924;2024-02-16T07:19:44;8.27;;;4.30;;
84161;SDS011;74285;52.372;12.924;2024-02-16T07:22:10;9.27;;;4.30;;
84161;SDS011;74285;52.372;12.924;2024-02-16T07:24:37;9.93;;;4.15;;
84161;SDS011;74285;52.372;12.924;2024-02-16T07:27:03;9.95;;;4.68;;
84161;SDS011;74285;52.372;12.924;2024-02-16T07:29:28;8.57;;;3.90;;
84161;SDS011;74285;52.372;12.924;2024-02-16T07:31:53;6.57;;;4.00;;
84161;SDS011;74285;52.372;12.924;2024-02-16T07:34:19;6.73;;;3.53;;
84161;SDS011;74285;52.372;12.924;2024-02-16T07:36:44;9.13;;;3.88;;
84161;SDS011;74285;52.372;12.924;2024-02-16T07:39:10;7.90;;;3.30;;
84161;SDS011;74285;52.372;12.924;2024-02-16T07:41:37;5.82;;;3.33;;
84161;SDS011;74285;52.372;12.924;2024-02-16T07:44:02;8.60;;;4.28;;
84161;SDS011;74285;52.372;12.924;2024-02-16T07:46:28;8.57;;;4.27;;
84161;SDS011;74285;52.372;12.924;2024-02-16T07:48:54;7.10;;;3.70;;
84161;SDS011;74285;52.372;12.924;2024-02-16T07:51:19;8.27;;;3.40;;
84161;SDS011;74285;52.372;12.924;2024-02-16T07:53:45;7.03;;;3.47;;
84161;SDS011;74285;52.372;12.924;2024-02-16T07:58:36;7.17;;;3.13;;
84161;SDS011;74285;52.372;12.924;2024-02-16T08:01:01;5.97;;;3.07;;
84161;SDS011;74285;52.372;12.924;2024-02-16T08:03:27;7.68;;;3.65;;
84161;SDS011;74285;52.372;12.924;2024-02-16T08:05:53;7.77;;;3.37;;
84161;SDS011;74285;52.372;12.924;2024-02-16T08:08:18;4.97;;;2.93;;
84161;SDS011;74285;52.372;12.924;2024-02-16T08:10:43;4.85;;;2.70;;
84161;SDS011;74285;52.372;12.924;2024-02-16T08:15:35;7.37;;;3.20;;
84161;SDS011;74285;52.372;12.924;2024-02-16T08:18:00;7.60;;;3.33;;
84161;SDS011;74285;52.372;12.924;2024-02-16T08:20:25;6.27;;;3.27;;
84161;SDS011;74285;52.372;12.924;2024-02-16T08:22:50;7.03;;;3.33;;
84161;SDS011;74285;52.372;12.924;2024-02-16T08:25:16;7.28;;;3.78;;
84161;SDS011;74285;52.372;12.924;2024-02-16T08:27:41;8.33;;;3.83;;
84161;SDS011;74285;52.372;12.924;2024-02-16T08:30:06;13.40;;;6.17;;
84161;SDS011;74285;52.372;12.924;2024-02-16T08:32:33;9.85;;;4.85;;
84161;SDS011;74285;52.372;12.924;2024-02-16T08:34:59;16.10;;;8.17;;
84161;SDS011;74285;52.372;12.924;2024-02-16T08:37:24;13.17;;;7.03;;
84161;SDS011;74285;52.372;12.924;2024-02-16T08:39:50;15.27;;;8.05;;
84161;SDS011;74285;52.372;12.924;2024-02-16T08:42:15;20.13;;;8.50;;
84161;SDS011;74285;52.372;12.924;2024-02-16T08:44:41;14.07;;;5.67;;
84161;SDS011;74285;52.372;12.924;2024-02-16T08:47:07;7.85;;;3.15;;
84161;SDS011;74285;52.372;12.924;2024-02-16T08:51:59;11.55;;;4.70;;
84161;SDS011;74285;52.372;12.924;2024-02-16T08:54:24;10.90;;;4.50;;
84161;SDS011;74285;52.372;12.924;2024-02-16T08:56:50;15.15;;;8.00;;
84161;SDS011;74285;52.372;12.924;2024-02-16T08:59:16;11.20;;;6.47;;
84161;SDS011;74285;52.372;12.924;2024-02-16T09:01:42;8.82;;;3.75;;
84161;SDS011;74285;52.372;12.924;2024-02-16T09:04:09;5.25;;;2.92;;
84161;SDS011;74285;52.372;12.924;2024-02-16T09:06:36;6.85;;;4.13;;
84161;SDS011;74285;52.372;12.924;2024-02-16T09:11:27;8.18;;;4.82;;
84161;SDS011;74285;52.372;12.924;2024-02-16T09:16:18;6.30;;;3.63;;
84161;SDS011;74285;52.372;12.924;2024-02-16T09:18:43;7.55;;;3.92;;
84161;SDS011;74285;52.372;12.924;2024-02-16T09:21:09;15.37;;;8.67;;
84161;SDS011;74285;52.372;12.924;2024-02-16T09:23:34;8.00;;;4.47;;
84161;SDS011;74285;52.372;12.924;2024-02-16T09:26:21;5.40;;;3.35;;
84161;SDS011;74285;52.372;12.924;2024-02-16T09:28:47;5.53;;;3.25;;
84161;SDS011;74285;52.372;12.924;2024-02-16T09:31:13;10.53;;;4.27;;
84161;SDS011;74285;52.372;12.924;2024-02-16T09:33:39;7.70;;;3.42;;
84161;SDS011;74285;52.372;12.924;2024-02-16T09:36:05;6.50;;;3.28;;
84161;SDS011;74285;52.372;12.924;2024-02-16T09:40:57;12.45;;;5.07;;
84161;SDS011;74285;52.372;12.924;2024-02-16T09:43:25;11.57;;;5.25;;
84161;SDS011;74285;52.372;12.924;2024-02-16T09:45:53;8.93;;;5.00;;
84161;SDS011;74285;52.372;12.924;2024-02-16T09:48:24;7.03;;;3.72;;
84161;SDS011;74285;52.372;12.924;2024-02-16T09:50:51;8.35;;;4.70;;
84161;SDS011;74285;52.372;12.924;2024-02-16T09:53:19;6.53;;;2.95;;
84161;SDS011;74285;52.372;12.924;2024-02-16T09:55:47;9.82;;;4.97;;
84161;SDS011;74285;52.372;12.924;2024-02-16T09:58:19;9.55;;;3.92;;
84161;SDS011;74285;52.372;12.924;2024-02-16T10:00:59;9.07;;;5.05;;
84161;SDS011;74285;52.372;12.924;2024-02-16T10:03:25;12.02;;;6.05;;
84161;SDS011;74285;52.372;12.924;2024-02-16T10:06:04;10.02;;;5.75;;
84161;SDS011;74285;52.372;12.924;2024-02-16T10:08:34;6.07;;;3.22;;
84161;SDS011;74285;52.372;12.924;2024-02-16T10:11:00;9.10;;;5.22;;
84161;SDS011;74285;52.372;12.924;2024-02-16T10:13:32;8.05;;;3.92;;
84161;SDS011;74285;52.372;12.924;2024-02-16T10:16:04;8.27;;;3.80;;
84161;SDS011;74285;52.372;12.924;2024-02-16T10:18:31;17.17;;;8.02;;
84161;SDS011;74285;52.372;12.924;2024-02-16T10:23:22;7.05;;;3.83;;
84161;SDS011;74285;52.372;12.924;2024-02-16T10:28:12;12.20;;;5.07;;
84161;SDS011;74285;52.372;12.924;2024-02-16T10:30:40;19.90;;;7.53;;
84161;SDS011;74285;52.372;12.924;2024-02-16T10:33:07;25.67;;;9.50;;
84161;SDS011;74285;52.372;12.924;2024-02-16T10:35:35;13.48;;;5.88;;
84161;SDS011;74285;52.372;12.924;2024-02-16T10:38:02;13.15;;;5.85;;
84161;SDS011;74285;52.372;12.924;2024-02-16T10:40:32;7.95;;;3.72;;
84161;SDS011;74285;52.372;12.924;2024-02-16T10:43:00;6.97;;;3.40;;
84161;SDS011;74285;52.372;12.924;2024-02-16T10:45:28;8.07;;;4.20;;
84161;SDS011;74285;52.372;12.924;2024-02-16T10:50:19;8.97;;;4.10;;
84161;SDS011;74285;52.372;12.924;2024-02-16T10:55:09;4.90;;;2.60;;
84161;SDS011;74285;52.372;12.924;2024-02-16T10:57:35;7.35;;;2.83;;
84161;SDS011;74285;52.372;12.924;2024-02-16T11:00:06;4.85;;;2.42;;
84161;SDS011;74285;52.372;12.924;2024-02-16T11:02:33;6.00;;;3.28;;
84161;SDS011;74285;52.372;12.924;2024-02-16T11:05:15;8.13;;;3.83;;
84161;SDS011;74285;52.372;12.924;2024-02-16T11:07:43;4.72;;;2.20;;
84161;SDS011;74285;52.372;12.924;2024-02-16T11:10:11;6.80;;;3.37;;
84161;SDS011;74285;52.372;12.924;2024-02-16T11:12:37;4.70;;;2.30;;
84161;SDS011;74285;52.372;12.924;2024-02-16T11:15:03;3.30;;;2.17;;
84161;SDS011;74285;52.372;12.924;2024-02-16T11:17:32;3.20;;;2.13;;
84161;SDS011;74285;52.372;12.924;2024-02-16T11:19:59;5.87;;;2.13;;
84161;SDS011;74285;52.372;12.924;2024-02-16T11:22:26;4.60;;;2.05;;
84161;SDS011;74285;52.372;12.924;2024-02-16T11:24:53;2.78;;;1.95;;
84161;SDS011;74285;52.372;12.924;2024-02-16T11:27:19;3.92;;;1.75;;
84161;SDS011;74285;52.372;12.924;2024-02-16T11:29:44;3.42;;;1.60;;
84161;SDS011;74285;52.372;12.924;2024-02-16T11:32:10;4.78;;;1.70;;
84161;SDS011;74285;52.372;12.924;2024-02-16T11:34:36;4.25;;;1.73;;
84161;SDS011;74285;52.372;12.924;2024-02-16T11:37:03;2.50;;;1.15;;
84161;SDS011;74285;52.372;12.924;2024-02-16T11:39:29;3.78;;;1.17;;
84161;SDS011;74285;52.372;12.924;2024-02-16T11:42:03;3.67;;;1.50;;
84161;SDS011;74285;52.372;12.924;2024-02-16T11:44:33;2.30;;;1.60;;
84161;SDS011;74285;52.372;12.924;2024-02-16T11:47:01;5.35;;;1.92;;
84161;SDS011;74285;52.372;12.924;2024-02-16T11:49:28;3.03;;;1.52;;
84161;SDS011;74285;52.372;12.924;2024-02-16T11:51:56;3.15;;;1.30;;
84161;SDS011;74285;52.372;12.924;2024-02-16T11:54:21;3.40;;;1.63;;
84161;SDS011;74285;52.372;12.924;2024-02-16T11:56:47;2.90;;;1.50;;
84161;SDS011;74285;52.372;12.924;2024-02-16T11:59:16;3.40;;;1.25;;
84161;SDS011;74285;52.372;12.924;2024-02-16T12:01:51;2.45;;;1.20;;
84161;SDS011;74285;52.372;12.924;2024-02-16T12:04:19;2.70;;;1.45;;
84161;SDS011;74285;52.372;12.924;2024-02-16T12:06:47;2.13;;;0.85;;
84161;SDS011;74285;52.372;12.924;2024-02-16T12:09:15;1.75;;;1.13;;
84161;SDS011;74285;52.372;12.924;2024-02-16T12:11:41;2.95;;;1.40;;
84161;SDS011;74285;52.372;12.924;2024-02-16T12:14:06;2.42;;;1.25;;
84161;SDS011;74285;52.372;12.924;2024-02-16T12:16:32;4.57;;;2.70;;
84161;SDS011;74285;52.372;12.924;2024-02-16T12:19:06;3.72;;;1.33;;
84161;SDS011;74285;52.372;12.924;2024-02-16T12:21:32;2.10;;;0.93;;
84161;SDS011;74285;52.372;12.924;2024-02-16T12:23:58;9.68;;;2.60;;
84161;SDS011;74285;52.372;12.924;2024-02-16T12:26:23;3.50;;;1.43;;
84161;SDS011;74285;52.372;12.924;2024-02-16T12:28:49;1.88;;;1.20;;
84161;SDS011;74285;52.372;12.924;2024-02-16T12:31:18;2.47;;;1.27;;
84161;SDS011;74285;52.372;12.924;2024-02-16T12:33:44;3.80;;;1.20;;
84161;SDS011;74285;52.372;12.924;2024-02-16T12:36:09;1.43;;;0.80;;
84161;SDS011;74285;52.372;12.924;2024-02-16T12:38:34;2.43;;;0.80;;
84161;SDS011;74285;52.372;12.924;2024-02-16T12:41:00;2.20;;;1.13;;
84161;SDS011;74285;52.372;12.924;2024-02-16T12:43:25;1.88;;;0.88;;
84161;SDS011;74285;52.372;12.924;2024-02-16T12:45:50;1.77;;;0.90;;
84161;SDS011;74285;52.372;12.924;2024-02-16T12:48:16;1.50;;;0.77;;
84161;SDS011;74285;52.372;12.924;2024-02-16T12:50:41;1.93;;;0.83;;
84161;SDS011;74285;52.372;12.924;2024-02-16T12:53:07;4.50;;;1.30;;
84161;SDS011;74285;52.372;12.924;2024-02-16T12:55:32;4.30;;;1.20;;
84161;SDS011;74285;52.372;12.924;2024-02-16T12:57:57;2.27;;;1.10;;
84161;SDS011;74285;52.372;12.924;2024-02-16T13:00:23;4.93;;;1.60;;
84161;SDS011;74285;52.372;12.924;2024-02-16T13:02:48;4.03;;;1.60;;
84161;SDS011;74285;52.372;12.924;2024-02-16T13:05:13;3.60;;;1.60;;
84161;SDS011;74285;52.372;12.924;2024-02-16T13:07:39;3.10;;;1.53;;
84161;SDS011;74285;52.372;12.924;2024-02-16T13:10:07;3.25;;;0.88;;
84161;SDS011;74285;52.372;12.924;2024-02-16T13:12:32;1.95;;;1.33;;
84161;SDS011;74285;52.372;12.924;2024-02-16T13:14:58;3.33;;;1.00;;
84161;SDS011;74285;52.372;12.924;2024-02-16T13:17:23;3.43;;;1.00;;
84161;SDS011;74285;52.372;12.924;2024-02-16T13:19:48;1.97;;;0.90;;
84161;SDS011;74285;52.372;12.924;2024-02-16T13:22:14;4.47;;;1.30;;
84161;SDS011;74285;52.372;12.924;2024-02-16T13:24:39;3.95;;;1.25;;
84161;SDS011;74285;52.372;12.924;2024-02-16T13:27:06;2.15;;;1.08;;
84161;SDS011;74285;52.372;12.924;2024-02-16T13:29:31;3.80;;;1.05;;
84161;SDS011;74285;52.372;12.924;2024-02-16T13:31:57;4.82;;;1.30;;
84161;SDS011;74285;52.372;12.924;2024-02-16T13:34:22;2.33;;;1.10;;
84161;SDS011;74285;52.372;12.924;2024-02-16T13:36:48;3.13;;;1.10;;
84161;SDS011;74285;52.372;12.924;2024-02-16T13:39:13;2.27;;;1.40;;
84161;SDS011;74285;52.372;12.924;2024-02-16T13:41:40;1.77;;;1.00;;
84161;SDS011;74285;52.372;12.924;2024-02-16T13:44:05;1.83;;;0.83;;
84161;SDS011;74285;52.372;12.924;2024-02-16T13:48:56;3.87;;;2.07;;
84161;SDS011;74285;52.372;12.924;2024-02-16T13:51:22;2.97;;;1.40;;
84161;SDS011;74285;52.372;12.924;2024-02-16T13:56:13;4.93;;;1.23;;
84161;SDS011;74285;52.372;12.924;2024-02-16T13:58:38;2.38;;;1.02;;
84161;SDS011;74285;52.372;12.924;2024-02-16T14:01:04;3.20;;;0.93;;
84161;SDS011;74285;52.372;12.924;2024-02-16T14:03:30;2.63;;;1.30;;
84161;SDS011;74285;52.372;12.924;2024-02-16T14:05:56;3.40;;;1.00;;
84161;SDS011;74285;52.372;12.924;2024-02-16T14:08:21;3.80;;;1.10;;
84161;SDS011;74285;52.372;12.924;2024-02-16T14:10:47;3.33;;;1.42;;
84161;SDS011;74285;52.372;12.924;2024-02-16T14:13:13;9.33;;;4.83;;
84161;SDS011;74285;52.372;12.924;2024-02-16T14:15:38;4.80;;;1.90;;
84161;SDS011;74285;52.372;12.924;2024-02-16T14:18:03;3.67;;;2.10;;
84161;SDS011;74285;52.372;12.924;2024-02-16T14:20:29;2.30;;;1.30;;
84161;SDS011;74285;52.372;12.924;2024-02-16T14:22:54;2.13;;;1.15;;
84161;SDS011;74285;52.372;12.924;2024-02-16T14:25:20;3.10;;;1.60;;
84161;SDS011;74285;52.372;12.924;2024-02-16T14:27:45;2.10;;;1.30;;
84161;SDS011;74285;52.372;12.924;2024-02-16T14:30:13;1.90;;;1.23;;
84161;SDS011;74285;52.372;12.924;2024-02-16T14:32:39;3.33;;;1.40;;
84161;SDS011;74285;52.372;12.924;2024-02-16T14:35:04;3.53;;;1.60;;
84161;SDS011;74285;52.372;12.924;2024-02-16T14:37:32;1.58;;;1.02;;
84161;SDS011;74285;52.372;12.924;2024-02-16T14:39:58;2.73;;;1.70;;
84161;SDS011;74285;52.372;12.924;2024-02-16T14:42:24;3.60;;;2.50;;
84161;SDS011;74285;52.372;12.924;2024-02-16T14:44:50;2.28;;;1.13;;
84161;SDS011;74285;52.372;12.924;2024-02-16T14:47:15;3.23;;;1.10;;
84161;SDS011;74285;52.372;12.924;2024-02-16T14:49:41;2.42;;;1.17;;
84161;SDS011;74285;52.372;12.924;2024-02-16T14:52:06;2.67;;;1.37;;
84161;SDS011;74285;52.372;12.924;2024-02-16T14:54:32;4.20;;;2.65;;
84161;SDS011;74285;52.372;12.924;2024-02-16T14:56:57;3.17;;;1.60;;